createdAt,value
2023-12-11T00:01:13.045Z,74.34
2023-12-11T00:03:41.558Z,74.75
2023-12-11T00:06:10.212Z,75.33
2023-12-11T00:08:39.688Z,74.90
2023-12-11T00:11:10.148Z,74.72
2023-12-11T00:13:38.236Z,74.87
2023-12-11T00:16:06.985Z,74.59
2023-12-11T00:18:35.175Z,74.22
2023-12-11T00:21:03.231Z,74.59
2023-12-11T00:23:31.288Z,74.82
2023-12-11T00:26:00.707Z,74.73
2023-12-11T00:28:28.758Z,74.80
2023-12-11T00:30:56.948Z,74.65
2023-12-11T00:33:25.217Z,74.71
2023-12-11T00:35:53.322Z,74.69
2023-12-11T00:38:23.589Z,74.29
2023-12-11T00:40:51.761Z,74.91
2023-12-11T00:43:21.531Z,74.85
2023-12-11T00:45:49.642Z,75.07
2023-12-11T00:48:17.700Z,74.68
2023-12-11T00:50:45.677Z,74.68
2023-12-11T00:53:13.681Z,74.78
2023-12-11T00:55:41.784Z,74.92
2023-12-11T00:58:10.315Z,74.73
2023-12-11T01:00:39.963Z,74.62
2023-12-11T01:03:07.934Z,75.19
2023-12-11T01:05:35.918Z,75.10
2023-12-11T01:08:03.980Z,75.42
2023-12-11T01:10:31.978Z,74.89
2023-12-11T01:12:59.984Z,74.93
2023-12-11T01:15:27.901Z,75.03
2023-12-11T01:17:57.610Z,74.70
2023-12-11T01:20:28.083Z,74.80
2023-12-11T01:22:56.110Z,75.06
2023-12-11T01:25:24.046Z,75.19
2023-12-11T01:27:54.381Z,75.31
2023-12-11T01:30:22.345Z,75.55
2023-12-11T01:32:50.388Z,75.22
2023-12-11T01:35:19.900Z,75.04
2023-12-11T01:37:47.905Z,75.10
2023-12-11T01:40:15.996Z,75.46
2023-12-11T01:42:44.057Z,75.58
2023-12-11T01:45:12.458Z,75.10
2023-12-11T01:47:40.932Z,75.47
2023-12-11T01:50:09.740Z,75.40
2023-12-11T01:52:39.798Z,75.91
2023-12-11T01:55:10.849Z,75.09
2023-12-11T01:57:39.204Z,75.81
2023-12-11T02:00:08.600Z,76.00
2023-12-11T02:02:36.564Z,75.90
2023-12-11T02:05:04.765Z,76.12
2023-12-11T02:07:33.418Z,75.86
2023-12-11T02:10:05.654Z,76.11
2023-12-11T02:12:33.824Z,75.77
2023-12-11T02:15:01.866Z,75.40
2023-12-11T02:17:30.104Z,75.78
2023-12-11T02:20:00.705Z,75.71
2023-12-11T02:22:28.984Z,75.70
2023-12-11T02:25:01.599Z,75.78
2023-12-11T02:27:32.027Z,76.02
2023-12-11T02:30:00.170Z,75.90
2023-12-11T02:32:28.254Z,76.03
2023-12-11T02:34:58.437Z,76.23
2023-12-11T02:37:26.370Z,76.30
2023-12-11T02:39:54.417Z,76.33
2023-12-11T02:42:22.438Z,76.11
2023-12-11T02:44:54.113Z,77.08
2023-12-11T02:47:22.087Z,76.50
2023-12-11T02:49:52.531Z,76.79
2023-12-11T02:52:20.614Z,76.88
2023-12-11T02:54:48.633Z,76.84
2023-12-11T02:57:18.046Z,77.35
2023-12-11T02:59:46.026Z,77.14
2023-12-11T03:02:17.449Z,77.05
2023-12-11T03:04:45.446Z,77.32
2023-12-11T03:07:15.329Z,76.85
2023-12-11T03:09:43.396Z,76.93
2023-12-11T03:12:11.390Z,77.47
2023-12-11T03:14:39.384Z,77.59
2023-12-11T03:17:07.324Z,77.24
2023-12-11T03:19:36.919Z,77.71
2023-12-11T03:22:05.030Z,77.89
2023-12-11T03:24:35.198Z,78.00
2023-12-11T03:27:06.005Z,77.91
2023-12-11T03:29:33.979Z,78.04
2023-12-11T03:32:02.016Z,77.94
2023-12-11T03:34:30.331Z,78.49
2023-12-11T03:36:59.791Z,78.55
2023-12-11T03:39:27.793Z,78.65
2023-12-11T03:41:57.217Z,78.93
2023-12-11T03:44:25.320Z,78.64
2023-12-11T03:46:53.326Z,79.15
2023-12-11T03:49:23.733Z,79.03
2023-12-11T03:51:51.835Z,79.11
2023-12-11T03:54:21.380Z,79.34
2023-12-11T03:56:49.399Z,79.51
2023-12-11T03:59:17.471Z,79.21
2023-12-11T04:01:46.351Z,79.75
2023-12-11T04:04:14.637Z,79.77
2023-12-11T04:06:42.721Z,79.43
2023-12-11T04:09:10.903Z,79.33
2023-12-11T04:11:40.306Z,79.63
2023-12-11T04:14:08.293Z,79.67
2023-12-11T04:16:36.285Z,79.62
2023-12-11T04:19:04.376Z,79.34
2023-12-11T04:21:32.475Z,79.90
2023-12-11T04:24:00.561Z,79.76
2023-12-11T04:26:28.538Z,80.12
2023-12-11T04:28:57.921Z,79.95
2023-12-11T04:31:25.925Z,79.85
2023-12-11T04:33:54.209Z,80.15
2023-12-11T04:36:22.823Z,80.30
2023-12-11T04:38:50.769Z,80.27
2023-12-11T04:41:18.827Z,80.13
2023-12-11T04:43:49.120Z,80.29
2023-12-11T04:46:21.769Z,80.26
2023-12-11T04:48:51.893Z,80.34
2023-12-11T04:51:22.484Z,80.91
2023-12-11T04:53:50.622Z,80.86
2023-12-11T04:56:18.748Z,80.43
2023-12-11T04:58:46.774Z,80.88
2023-12-11T05:01:14.894Z,80.61
2023-12-11T05:03:45.492Z,80.86
2023-12-11T05:06:13.537Z,80.60
2023-12-11T05:08:41.594Z,80.88
2023-12-11T05:11:09.646Z,80.58
2023-12-11T05:13:37.638Z,80.70
2023-12-11T05:16:06.377Z,81.36
2023-12-11T05:18:38.327Z,80.86
2023-12-11T05:21:11.988Z,81.21
2023-12-11T05:23:40.033Z,80.57
2023-12-11T05:26:08.042Z,80.46
2023-12-11T05:28:36.006Z,80.96
2023-12-11T05:31:04.103Z,80.69
2023-12-11T05:33:32.243Z,80.86
2023-12-11T05:36:00.286Z,80.65
2023-12-11T05:38:31.934Z,81.11
2023-12-11T05:40:59.932Z,80.70
2023-12-11T05:43:28.063Z,80.50
2023-12-11T05:45:56.074Z,80.88
2023-12-11T05:48:24.138Z,80.46
2023-12-11T05:50:52.136Z,80.83
2023-12-11T05:53:20.140Z,80.85
2023-12-11T05:55:49.713Z,79.81
2023-12-11T05:58:17.802Z,80.46
2023-12-11T06:00:46.260Z,80.58
2023-12-11T06:03:14.575Z,80.17
2023-12-11T06:05:42.743Z,80.05
2023-12-11T06:08:10.836Z,80.36
2023-12-11T06:10:38.866Z,79.93
2023-12-11T06:13:08.433Z,80.17
2023-12-11T06:15:36.538Z,80.16
2023-12-11T06:18:09.273Z,79.61
2023-12-11T06:20:37.382Z,80.58
2023-12-11T06:23:05.448Z,80.62
2023-12-11T06:25:33.628Z,80.80
2023-12-11T06:28:02.257Z,80.67
2023-12-11T06:30:32.210Z,80.35
2023-12-11T06:33:00.386Z,80.34
2023-12-11T06:35:28.515Z,80.31
2023-12-11T06:37:56.641Z,80.25
2023-12-11T06:40:24.750Z,80.30
2023-12-11T06:42:52.817Z,80.16
2023-12-11T06:45:20.841Z,80.51
2023-12-11T06:47:50.242Z,79.94
2023-12-11T06:50:21.030Z,80.23
2023-12-11T06:52:49.113Z,80.21
2023-12-11T06:55:19.204Z,80.33
2023-12-11T06:57:49.952Z,80.45
2023-12-11T07:00:19.044Z,80.36
2023-12-11T07:02:47.163Z,80.30
2023-12-11T07:05:16.933Z,80.32
2023-12-11T07:07:45.041Z,80.10
2023-12-11T07:10:13.064Z,80.25
2023-12-11T07:12:44.085Z,80.52
2023-12-11T07:15:12.351Z,80.28
2023-12-11T07:17:41.031Z,79.83
2023-12-11T07:20:11.435Z,80.26
2023-12-11T07:22:40.996Z,80.26
2023-12-11T07:25:15.234Z,80.21
2023-12-11T07:27:43.961Z,80.22
2023-12-11T07:30:15.659Z,80.56
2023-12-11T07:32:43.894Z,80.34
2023-12-11T07:35:14.721Z,80.55
2023-12-11T07:37:46.421Z,80.85
2023-12-11T07:40:15.241Z,80.63
2023-12-11T07:42:43.223Z,81.52
2023-12-11T07:45:13.510Z,81.12
2023-12-11T07:47:44.587Z,80.92
2023-12-11T07:50:12.896Z,81.79
2023-12-11T07:52:42.270Z,80.93
2023-12-11T07:55:11.907Z,81.71
2023-12-11T07:57:41.109Z,81.29
2023-12-11T08:00:10.232Z,80.90
2023-12-11T08:02:39.402Z,80.45
2023-12-11T08:05:07.523Z,80.86
2023-12-11T08:07:35.842Z,79.97
2023-12-11T08:10:04.121Z,80.13
2023-12-11T08:12:34.354Z,79.99
2023-12-11T08:15:05.226Z,79.76
2023-12-11T08:17:33.906Z,79.40
2023-12-11T08:20:02.380Z,79.40
2023-12-11T08:22:30.578Z,78.62
2023-12-11T08:24:58.667Z,78.13
2023-12-11T08:27:29.192Z,76.96
2023-12-11T08:29:58.984Z,76.93
2023-12-11T08:32:27.083Z,76.62
2023-12-11T08:34:55.202Z,76.04
2023-12-11T08:37:23.360Z,76.36
2023-12-11T08:39:51.472Z,75.46
2023-12-11T08:42:19.551Z,75.03
2023-12-11T08:44:47.581Z,75.30
2023-12-11T08:47:16.955Z,73.98
2023-12-11T08:49:45.081Z,74.21
2023-12-11T08:52:13.189Z,73.58
2023-12-11T08:54:41.203Z,74.44
2023-12-11T08:57:09.741Z,73.98
2023-12-11T08:59:38.986Z,72.91
2023-12-11T09:02:07.419Z,72.64
2023-12-11T09:04:38.983Z,72.98
2023-12-11T09:07:08.745Z,72.56
2023-12-11T09:09:36.759Z,71.91
2023-12-11T09:12:06.073Z,72.08
2023-12-11T09:14:35.655Z,71.67
2023-12-11T09:17:03.780Z,71.77
2023-12-11T09:19:40.516Z,71.14
2023-12-11T09:22:20.428Z,71.94
2023-12-11T09:24:48.604Z,71.61
2023-12-11T09:27:19.104Z,71.37
2023-12-11T09:29:49.702Z,70.85
2023-12-11T09:32:18.555Z,70.72
2023-12-11T09:34:47.558Z,70.91
2023-12-11T09:37:17.122Z,70.14
2023-12-11T09:39:47.017Z,70.77
2023-12-11T09:42:16.781Z,70.20
2023-12-11T09:44:47.768Z,69.73
2023-12-11T09:47:18.883Z,69.35
2023-12-11T09:49:49.296Z,68.69
2023-12-11T09:52:20.415Z,68.95
2023-12-11T09:54:50.019Z,68.86
2023-12-11T09:57:18.696Z,68.72
2023-12-11T09:59:50.917Z,67.96
2023-12-11T10:02:19.798Z,66.64
2023-12-11T10:05:08.846Z,67.30
2023-12-11T10:07:38.101Z,66.83
2023-12-11T10:10:24.346Z,66.17
2023-12-11T10:12:52.426Z,66.49
2023-12-11T10:15:25.503Z,66.01
2023-12-11T10:18:07.349Z,66.03
2023-12-11T10:20:36.933Z,65.77
2023-12-11T10:23:16.671Z,63.98
2023-12-11T10:25:48.082Z,63.34
2023-12-11T10:28:19.840Z,63.35
2023-12-11T10:30:53.203Z,63.39
2023-12-11T10:33:22.235Z,63.18
2023-12-11T10:35:50.885Z,62.70
2023-12-11T10:38:23.287Z,62.38
2023-12-11T10:40:53.244Z,62.57
2023-12-11T10:43:21.554Z,63.54
2023-12-11T10:45:52.910Z,63.65
2023-12-11T10:48:22.472Z,62.80
2023-12-11T10:50:51.419Z,63.39
2023-12-11T10:53:20.225Z,63.42
2023-12-11T10:55:50.608Z,62.58
2023-12-11T10:58:20.679Z,62.98
2023-12-11T11:00:49.348Z,62.69
2023-12-11T11:03:19.232Z,63.19
2023-12-11T11:05:48.752Z,63.53
2023-12-11T11:08:28.303Z,62.46
2023-12-11T11:11:03.925Z,61.79
2023-12-11T11:13:40.120Z,61.30
2023-12-11T11:16:08.359Z,61.32
2023-12-11T11:19:07.133Z,61.24
2023-12-11T11:21:35.419Z,61.40
2023-12-11T11:24:03.802Z,60.55
2023-12-11T11:26:33.752Z,60.73
2023-12-11T11:29:06.914Z,60.65
2023-12-11T11:31:52.512Z,59.59
2023-12-11T11:34:45.945Z,59.56
2023-12-11T11:37:18.419Z,59.78
2023-12-11T11:39:59.918Z,58.36
2023-12-11T11:42:29.503Z,59.10
2023-12-11T11:45:00.111Z,57.96
2023-12-11T11:47:32.513Z,57.40
2023-12-11T11:50:06.728Z,56.26
2023-12-11T11:52:37.081Z,56.37
2023-12-11T11:55:12.913Z,56.27
2023-12-11T11:57:42.154Z,56.14
2023-12-11T12:00:12.742Z,55.33
2023-12-11T12:02:41.039Z,55.88
2023-12-11T12:05:11.570Z,55.28
2023-12-11T12:07:41.601Z,54.86
2023-12-11T12:10:14.290Z,54.64
2023-12-11T12:12:42.749Z,54.05
2023-12-11T12:15:12.756Z,53.42
2023-12-11T12:17:41.381Z,53.60
2023-12-11T12:20:14.265Z,53.88
2023-12-11T12:22:57.060Z,53.24
2023-12-11T12:25:25.334Z,52.99
2023-12-11T12:27:55.024Z,53.74
2023-12-11T12:30:24.658Z,53.30
2023-12-11T12:32:53.803Z,52.83
2023-12-11T12:35:22.918Z,52.15
2023-12-11T12:37:51.917Z,52.44
2023-12-11T12:40:20.703Z,51.82
2023-12-11T12:42:49.128Z,51.24
2023-12-11T12:45:35.930Z,51.88
2023-12-11T12:48:05.993Z,52.29
2023-12-11T12:50:34.733Z,50.91
2023-12-11T12:53:07.493Z,51.35
2023-12-11T12:55:36.535Z,50.82
2023-12-11T12:58:05.346Z,51.65
2023-12-11T13:00:36.478Z,51.23
2023-12-11T13:03:08.942Z,51.02
2023-12-11T13:05:44.368Z,51.59
2023-12-11T13:08:12.425Z,51.80
2023-12-11T13:10:40.405Z,51.20
2023-12-11T13:13:12.952Z,51.53
2023-12-11T13:15:43.631Z,51.11
2023-12-11T13:18:16.429Z,51.23
2023-12-11T13:20:44.932Z,49.98
2023-12-11T13:23:13.051Z,49.87
2023-12-11T13:25:40.908Z,49.58
2023-12-11T13:28:08.888Z,50.61
2023-12-11T13:30:37.493Z,51.29
2023-12-11T13:33:07.092Z,50.76
2023-12-11T13:35:35.160Z,51.53
2023-12-11T13:38:03.384Z,52.10
2023-12-11T13:40:31.396Z,53.12
2023-12-11T13:42:59.388Z,53.28
2023-12-11T13:45:29.864Z,53.30
2023-12-11T13:47:58.152Z,53.95
2023-12-11T13:50:28.450Z,54.93
2023-12-11T13:52:56.902Z,55.54
2023-12-11T13:55:25.348Z,55.75
2023-12-11T13:57:53.865Z,56.47
2023-12-11T14:00:21.886Z,56.91
2023-12-11T14:03:00.873Z,57.28
2023-12-11T14:05:34.836Z,57.26
2023-12-11T14:08:04.276Z,57.90
2023-12-11T14:10:36.064Z,58.18
2023-12-11T14:13:04.697Z,58.13
2023-12-11T14:15:33.654Z,58.69
2023-12-11T14:18:01.649Z,58.24
2023-12-11T14:20:31.081Z,58.74
2023-12-11T14:23:03.389Z,59.14
2023-12-11T14:25:31.714Z,58.72
2023-12-11T14:28:05.073Z,59.10
2023-12-11T14:30:36.548Z,58.38
2023-12-11T14:33:05.593Z,58.95
2023-12-11T14:35:33.981Z,59.44
2023-12-11T14:38:05.793Z,59.57
2023-12-11T14:40:34.820Z,59.07
2023-12-11T14:43:06.057Z,59.57
2023-12-11T14:45:41.533Z,59.69
2023-12-11T14:48:09.893Z,59.69
2023-12-11T14:50:37.923Z,58.59
2023-12-11T14:53:08.093Z,59.34
2023-12-11T14:55:43.647Z,58.71
2023-12-11T14:58:12.263Z,58.90
2023-12-11T15:00:40.268Z,58.93
2023-12-11T15:03:08.198Z,58.85
2023-12-11T15:05:36.369Z,59.26
2023-12-11T15:08:04.378Z,59.01
2023-12-11T15:10:37.467Z,58.67
2023-12-11T15:13:07.907Z,59.26
2023-12-11T15:15:36.663Z,58.75
2023-12-11T15:18:07.923Z,58.61
2023-12-11T15:20:40.073Z,58.45
2023-12-11T15:23:10.706Z,58.48
2023-12-11T15:25:41.377Z,58.45
2023-12-11T15:28:09.337Z,58.64
2023-12-11T15:34:23.829Z,59.07
2023-12-11T15:36:52.340Z,59.04
2023-12-11T15:39:23.636Z,59.64
2023-12-11T15:41:54.095Z,60.04
2023-12-11T15:44:22.453Z,59.54
2023-12-11T15:46:50.722Z,59.88
2023-12-11T15:49:19.415Z,60.14
2023-12-11T15:51:53.263Z,60.41
2023-12-11T15:54:21.420Z,60.54
2023-12-11T15:56:49.481Z,60.59
2023-12-11T15:59:18.732Z,61.14
2023-12-11T16:01:46.759Z,61.36
2023-12-11T16:04:14.756Z,61.01
2023-12-11T16:06:42.705Z,61.29
2023-12-11T16:09:19.075Z,61.50
2023-12-11T16:11:47.683Z,61.21
2023-12-11T16:14:19.280Z,61.41
2023-12-11T16:16:47.607Z,61.21
2023-12-11T16:19:16.859Z,61.11
2023-12-11T16:21:45.578Z,60.88
2023-12-11T16:24:14.358Z,61.25
2023-12-11T16:26:45.432Z,61.69
2023-12-11T16:29:13.462Z,61.89
2023-12-11T16:31:45.119Z,61.61
2023-12-11T16:34:13.314Z,62.06
2023-12-11T16:36:41.867Z,62.22
2023-12-11T16:39:09.873Z,62.20
2023-12-11T16:41:37.789Z,62.17
2023-12-11T16:44:06.356Z,62.89
2023-12-11T16:46:34.716Z,62.59
2023-12-11T16:49:04.801Z,62.83
2023-12-11T16:51:33.059Z,63.06
2023-12-11T16:54:01.097Z,62.83
2023-12-11T16:56:29.271Z,62.90
2023-12-11T16:58:57.222Z,62.71
2023-12-11T17:01:25.374Z,62.45
2023-12-11T17:03:53.679Z,62.38
2023-12-11T17:06:24.006Z,62.63
2023-12-11T17:08:52.165Z,62.78
2023-12-11T17:11:20.350Z,62.79
2023-12-11T17:13:49.327Z,62.93
2023-12-11T17:16:18.947Z,62.81
2023-12-11T17:18:47.080Z,63.03
2023-12-11T17:21:22.427Z,63.42
2023-12-11T17:23:58.866Z,63.35
2023-12-11T17:26:29.495Z,63.66
2023-12-11T17:28:59.846Z,64.08
2023-12-11T17:31:27.809Z,64.00
2023-12-11T17:33:55.900Z,63.94
2023-12-11T17:36:23.824Z,64.14
2023-12-11T17:38:51.841Z,64.09
2023-12-11T17:41:21.177Z,64.30
2023-12-11T17:43:49.318Z,64.30
2023-12-11T17:46:17.273Z,64.39
2023-12-11T17:48:45.717Z,63.98
2023-12-11T17:51:16.408Z,63.76
2023-12-11T17:53:44.895Z,64.40
2023-12-11T17:56:16.716Z,63.98
2023-12-11T17:58:46.280Z,63.75
2023-12-11T18:01:14.391Z,63.49
2023-12-11T18:03:42.385Z,63.62
2023-12-11T18:06:16.101Z,62.85
2023-12-11T18:08:44.585Z,62.83
2023-12-11T18:11:12.790Z,62.41
2023-12-11T18:13:41.179Z,62.62
2023-12-11T18:16:10.677Z,62.91
2023-12-11T18:18:39.887Z,62.12
2023-12-11T18:21:08.215Z,62.53
2023-12-11T18:23:38.550Z,62.39
2023-12-11T18:26:06.852Z,62.79
2023-12-11T18:28:34.815Z,62.42
2023-12-11T18:31:03.456Z,63.21
2023-12-11T18:33:33.046Z,63.00
2023-12-11T18:36:01.100Z,63.30
2023-12-11T18:38:29.364Z,63.42
2023-12-11T18:40:59.535Z,63.23
2023-12-11T18:43:28.200Z,63.74
2023-12-11T18:45:56.778Z,63.55
2023-12-11T18:48:26.766Z,63.80
2023-12-11T18:50:56.623Z,64.19
2023-12-11T18:53:27.497Z,63.97
2023-12-11T18:56:02.398Z,64.51
2023-12-11T18:58:31.203Z,64.74
2023-12-11T19:01:01.098Z,64.80
2023-12-11T19:03:29.263Z,64.85
2023-12-11T19:05:58.686Z,64.74
2023-12-11T19:08:27.793Z,64.68
2023-12-11T19:10:56.300Z,64.58
2023-12-11T19:13:24.515Z,64.99
2023-12-11T19:15:54.490Z,64.72
2023-12-11T19:18:26.084Z,64.83
2023-12-11T19:20:54.333Z,64.72
2023-12-11T19:23:26.150Z,65.13
2023-12-11T19:25:56.348Z,65.11
2023-12-11T19:28:24.943Z,65.23
2023-12-11T19:30:53.578Z,64.87
2023-12-11T19:33:22.072Z,64.95
2023-12-11T19:35:52.331Z,65.18
2023-12-11T19:38:20.820Z,65.47
2023-12-11T19:40:50.474Z,64.95
2023-12-11T19:43:19.160Z,64.88
2023-12-11T19:45:47.376Z,65.10
2023-12-11T19:48:17.016Z,64.88
2023-12-11T19:50:45.563Z,64.60
2023-12-11T19:53:13.744Z,64.71
2023-12-11T19:55:42.194Z,64.81
2023-12-11T19:58:12.133Z,64.66
2023-12-11T20:00:40.930Z,65.05
2023-12-11T20:03:10.602Z,65.11
2023-12-11T20:05:52.612Z,65.38
2023-12-11T20:08:21.287Z,65.32
2023-12-11T20:10:49.669Z,65.12
2023-12-11T20:13:21.098Z,65.06
2023-12-11T20:15:49.293Z,65.39
2023-12-11T20:18:18.178Z,65.30
2023-12-11T20:25:12.071Z,65.13
2023-12-11T20:27:40.082Z,65.08
2023-12-11T20:30:10.596Z,64.40
2023-12-11T20:32:38.584Z,64.48
2023-12-11T20:35:09.989Z,63.66
2023-12-11T20:37:38.984Z,64.00
2023-12-11T20:40:08.462Z,63.96
2023-12-11T20:42:42.482Z,64.09
2023-12-11T20:45:12.405Z,63.68
2023-12-11T20:47:40.489Z,63.73
2023-12-11T20:50:12.053Z,63.21
2023-12-11T20:52:41.533Z,63.32
2023-12-11T20:55:10.489Z,63.30
2023-12-11T20:57:38.528Z,63.63
2023-12-11T21:00:11.366Z,63.20
2023-12-11T21:02:42.492Z,63.31
2023-12-11T21:05:10.891Z,62.86
2023-12-11T21:07:42.370Z,62.93
2023-12-11T21:10:12.955Z,62.95
2023-12-11T21:12:40.897Z,62.54
2023-12-11T21:15:09.331Z,63.03
2023-12-11T21:17:41.528Z,62.78
2023-12-11T21:20:14.772Z,61.96
2023-12-11T21:22:42.885Z,62.71
2023-12-11T21:25:11.540Z,62.52
2023-12-11T21:27:39.762Z,62.82
2023-12-11T21:30:10.514Z,62.86
2023-12-11T21:32:40.441Z,62.55
2023-12-11T21:35:09.044Z,62.04
2023-12-11T21:37:38.628Z,62.38
2023-12-11T21:40:07.938Z,62.64
2023-12-11T21:42:38.800Z,62.73
2023-12-11T21:45:07.773Z,63.09
2023-12-11T21:47:36.122Z,62.73
2023-12-11T21:50:05.875Z,63.13
2023-12-11T21:52:33.966Z,62.88
2023-12-11T21:55:03.330Z,63.44
2023-12-11T21:57:31.514Z,63.33
2023-12-11T21:59:59.557Z,63.79
2023-12-11T22:02:27.706Z,63.79
2023-12-11T22:04:55.538Z,63.82
2023-12-11T22:07:23.535Z,64.10
2023-12-11T22:09:51.550Z,64.00
2023-12-11T22:12:21.234Z,64.15
2023-12-11T22:14:49.149Z,63.91
2023-12-11T22:17:17.085Z,64.70
2023-12-11T22:19:45.042Z,64.67
2023-12-11T22:22:13.185Z,64.39
2023-12-11T22:24:41.249Z,64.48
2023-12-11T22:27:09.184Z,64.75
2023-12-11T22:29:38.899Z,64.83
2023-12-11T22:32:07.841Z,64.89
2023-12-11T22:34:35.854Z,64.88
2023-12-11T22:37:04.015Z,64.70
2023-12-11T22:39:34.097Z,64.95
2023-12-11T22:42:02.130Z,64.73
2023-12-11T22:44:30.023Z,64.83
2023-12-11T22:47:01.753Z,65.15
2023-12-11T22:49:29.916Z,64.77
2023-12-11T22:51:57.898Z,65.29
2023-12-11T22:54:25.799Z,64.94
2023-12-11T22:56:53.723Z,65.22
2023-12-11T22:59:21.704Z,65.40
2023-12-11T23:01:50.825Z,65.64
2023-12-11T23:04:20.261Z,65.76
2023-12-11T23:06:50.763Z,66.64
2023-12-11T23:09:18.783Z,66.57
2023-12-11T23:11:46.645Z,66.34
2023-12-11T23:14:14.659Z,66.29
2023-12-11T23:16:42.560Z,66.14
2023-12-11T23:19:10.515Z,66.41
2023-12-11T23:21:39.954Z,66.88
2023-12-11T23:24:08.730Z,67.01
2023-12-11T23:26:36.631Z,66.92
2023-12-11T23:29:04.710Z,66.91
2023-12-11T23:31:32.731Z,66.88
2023-12-11T23:34:00.982Z,66.63
2023-12-11T23:36:28.946Z,67.16
2023-12-11T23:38:58.200Z,66.98
2023-12-11T23:41:26.073Z,67.17
2023-12-11T23:43:54.139Z,67.52
2023-12-11T23:46:22.133Z,67.62
2023-12-11T23:48:50.260Z,67.90
2023-12-11T23:51:18.286Z,68.46
2023-12-11T23:53:48.384Z,68.26
2023-12-11T23:56:17.666Z,67.92
2023-12-11T23:58:46.004Z,68.09
